Randolph, Mississippi
Current Conditions -  °F | °C
As of 1:55 PM on Friday 24 Oct 2014 (Local Time) from KUOX Reporting Station
Clear Clear  
Wind Chill: 68°   Ceiling: Unl
Heat Index: 68°   Visibility: 10mi
Dew Point: 46°   Wind: 9mph
Humidity: 46%   Direction: 330°NNW
Pressure: 30.12"   Gusts: NA
Location:  34.18°N, 89.17°W
Report Text: KUOX 241855Z AUTO 33008KT 10SM CLR 20/08 A3012 RMK AO2 PWINO PNO
Loading
Personal Weather Stations






























Interactive Weather Map
Tropical Storm Tracking
New forecast layout! Learn more

10-Day Weather Forecast

Advertisements
Track Severe Weather on mobile